sensor_id;sensor_type;location;lat;lon;timestamp;pressure;altitude;pressure_sealevel;temperature;humidity
23172;BME280;11754;42.664;23.594;2023-05-02T00:00:03;95760.75;;;10.65;71.02
23172;BME280;11754;42.664;23.594;2023-05-02T00:02:28;95749.69;;;10.62;71.53
23172;BME280;11754;42.664;23.594;2023-05-02T00:04:53;95752.97;;;10.64;71.26
23172;BME280;11754;42.664;23.594;2023-05-02T00:07:19;95738.94;;;10.55;71.66
23172;BME280;11754;42.664;23.594;2023-05-02T00:09:45;95753.16;;;10.62;71.59
23172;BME280;11754;42.664;23.594;2023-05-02T00:12:10;95750.81;;;10.59;72.13
23172;BME280;11754;42.664;23.594;2023-05-02T00:14:36;95742.56;;;10.54;71.92
23172;BME280;11754;42.664;23.594;2023-05-02T00:17:01;95726.38;;;10.49;72.14
23172;BME280;11754;42.664;23.594;2023-05-02T00:19:27;95743.09;;;10.57;72.10
23172;BME280;11754;42.664;23.594;2023-05-02T00:32:35;95755.44;;;10.57;72.17
23172;BME280;11754;42.664;23.594;2023-05-02T00:35:01;95755.09;;;10.60;72.25
23172;BME280;11754;42.664;23.594;2023-05-02T00:37:26;95758.75;;;10.59;72.02
23172;BME280;11754;42.664;23.594;2023-05-02T00:39:52;95765.34;;;10.63;72.13
23172;BME280;11754;42.664;23.594;2023-05-02T00:42:18;95764.03;;;10.67;72.49
23172;BME280;11754;42.664;23.594;2023-05-02T00:44:43;95751.13;;;10.56;72.09
23172;BME280;11754;42.664;23.594;2023-05-02T00:47:09;95762.56;;;10.65;72.31
23172;BME280;11754;42.664;23.594;2023-05-02T00:49:34;95763.53;;;10.64;72.00
23172;BME280;11754;42.664;23.594;2023-05-02T00:52:00;95774.72;;;10.57;71.95
23172;BME280;11754;42.664;23.594;2023-05-02T00:54:26;95764.88;;;10.25;72.19
23172;BME280;11754;42.664;23.594;2023-05-02T00:57:16;95785.94;;;10.25;72.57
23172;BME280;11754;42.664;23.594;2023-05-02T00:59:41;95794.31;;;10.21;73.25
23172;BME280;11754;42.664;23.594;2023-05-02T01:02:24;95782.91;;;10.20;73.25
23172;BME280;11754;42.664;23.594;2023-05-02T01:05:14;95795.78;;;10.23;73.41
23172;BME280;11754;42.664;23.594;2023-05-02T01:08:02;95785.41;;;10.22;73.69
23172;BME280;11754;42.664;23.594;2023-05-02T01:10:51;95789.16;;;10.19;73.46
23172;BME280;11754;42.664;23.594;2023-05-02T01:13:26;95798.72;;;10.20;74.35
23172;BME280;11754;42.664;23.594;2023-05-02T01:15:53;95796.09;;;10.20;74.24
23172;BME280;11754;42.664;23.594;2023-05-02T01:18:22;95791.81;;;10.19;74.09
23172;BME280;11754;42.664;23.594;2023-05-02T01:20:54;95797.06;;;10.19;74.26
23172;BME280;11754;42.664;23.594;2023-05-02T01:26:36;95787.72;;;10.25;74.35
23172;BME280;11754;42.664;23.594;2023-05-02T01:29:07;95789.25;;;10.27;74.36
23172;BME280;11754;42.664;23.594;2023-05-02T01:31:38;95770.41;;;10.22;74.83
23172;BME280;11754;42.664;23.594;2023-05-02T01:37:42;95787.59;;;10.26;74.83
23172;BME280;11754;42.664;23.594;2023-05-02T01:40:09;95774.84;;;10.22;74.83
23172;BME280;11754;42.664;23.594;2023-05-02T01:42:36;95780.69;;;10.25;75.28
23172;BME280;11754;42.664;23.594;2023-05-02T01:45:04;95772.22;;;10.22;75.21
23172;BME280;11754;42.664;23.594;2023-05-02T01:47:32;95782.19;;;10.28;75.38
23172;BME280;11754;42.664;23.594;2023-05-02T01:50:02;95767.09;;;10.20;75.55
23172;BME280;11754;42.664;23.594;2023-05-02T01:52:28;95781.63;;;10.24;75.54
23172;BME280;11754;42.664;23.594;2023-05-02T01:54:56;95779.00;;;10.24;75.39
23172;BME280;11754;42.664;23.594;2023-05-02T02:00:59;95776.00;;;10.19;76.30
23172;BME280;11754;42.664;23.594;2023-05-02T02:03:27;95771.84;;;10.17;75.58
23172;BME280;11754;42.664;23.594;2023-05-02T02:05:54;95767.44;;;10.17;75.86
23172;BME280;11754;42.664;23.594;2023-05-02T02:08:20;95769.06;;;10.18;76.20
23172;BME280;11754;42.664;23.594;2023-05-02T02:10:51;95767.44;;;10.17;76.38
23172;BME280;11754;42.664;23.594;2023-05-02T02:13:27;95774.03;;;10.21;75.90
23172;BME280;11754;42.664;23.594;2023-05-02T02:15:58;95770.06;;;10.17;76.34
23172;BME280;11754;42.664;23.594;2023-05-02T02:18:26;95765.75;;;10.16;75.63
23172;BME280;11754;42.664;23.594;2023-05-02T02:20:54;95771.19;;;10.15;76.18
23172;BME280;11754;42.664;23.594;2023-05-02T02:23:22;95764.72;;;10.09;76.06
23172;BME280;11754;42.664;23.594;2023-05-02T02:25:51;95766.41;;;10.10;76.04
23172;BME280;11754;42.664;23.594;2023-05-02T02:28:17;95783.56;;;10.14;75.92
23172;BME280;11754;42.664;23.594;2023-05-02T02:30:43;95779.25;;;10.13;76.04
23172;BME280;11754;42.664;23.594;2023-05-02T02:33:08;95770.81;;;10.09;75.92
23172;BME280;11754;42.664;23.594;2023-05-02T02:35:39;95775.28;;;10.09;76.25
23172;BME280;11754;42.664;23.594;2023-05-02T02:41:09;95769.78;;;10.02;76.99
23172;BME280;11754;42.664;23.594;2023-05-02T02:46:33;95781.19;;;10.03;76.93
23172;BME280;11754;42.664;23.594;2023-05-02T02:49:22;95775.06;;;10.02;77.03
23172;BME280;11754;42.664;23.594;2023-05-02T02:52:00;95784.47;;;10.05;77.44
23172;BME280;11754;42.664;23.594;2023-05-02T02:54:34;95777.56;;;10.04;77.49
23172;BME280;11754;42.664;23.594;2023-05-02T02:57:12;95777.56;;;10.04;77.62
23172;BME280;11754;42.664;23.594;2023-05-02T02:59:50;95772.91;;;9.98;77.07
23172;BME280;11754;42.664;23.594;2023-05-02T03:05:38;95791.72;;;10.03;77.02
23172;BME280;11754;42.664;23.594;2023-05-02T03:08:03;95783.97;;;10.01;77.60
23172;BME280;11754;42.664;23.594;2023-05-02T03:10:29;95793.38;;;10.04;77.01
23172;BME280;11754;42.664;23.594;2023-05-02T03:12:54;95797.50;;;10.06;76.64
23172;BME280;11754;42.664;23.594;2023-05-02T03:18:41;95810.88;;;10.13;76.42
23172;BME280;11754;42.664;23.594;2023-05-02T03:21:06;95804.94;;;10.11;76.41
23172;BME280;11754;42.664;23.594;2023-05-02T03:23:32;95807.94;;;10.16;76.25
23172;BME280;11754;42.664;23.594;2023-05-02T03:25:57;95816.72;;;10.25;75.90
23172;BME280;11754;42.664;23.594;2023-05-02T03:28:23;95812.31;;;10.25;75.68
23172;BME280;11754;42.664;23.594;2023-05-02T03:30:48;95814.78;;;10.27;75.31
23172;BME280;11754;42.664;23.594;2023-05-02T03:33:13;95821.91;;;10.34;75.22
23172;BME280;11754;42.664;23.594;2023-05-02T03:35:38;95821.09;;;10.34;75.02
23172;BME280;11754;42.664;23.594;2023-05-02T03:38:04;95819.44;;;10.33;74.87
23172;BME280;11754;42.664;23.594;2023-05-02T03:40:29;95831.00;;;10.40;74.77
23172;BME280;11754;42.664;23.594;2023-05-02T03:42:55;95831.53;;;10.44;74.77
23172;BME280;11754;42.664;23.594;2023-05-02T03:45:20;95836.81;;;10.44;74.21
23172;BME280;11754;42.664;23.594;2023-05-02T03:47:45;95821.28;;;10.41;73.44
23172;BME280;11754;42.664;23.594;2023-05-02T03:56:54;95828.09;;;10.51;72.39
23172;BME280;11754;42.664;23.594;2023-05-02T03:59:19;95824.69;;;10.59;72.41
23172;BME280;11754;42.664;23.594;2023-05-02T04:01:48;95816.75;;;10.59;72.14
23172;BME280;11754;42.664;23.594;2023-05-02T04:04:14;95825.88;;;10.65;72.05
23172;BME280;11754;42.664;23.594;2023-05-02T04:06:41;95828.72;;;10.71;71.79
23172;BME280;11754;42.664;23.594;2023-05-02T04:09:06;95827.53;;;10.74;72.19
23172;BME280;11754;42.664;23.594;2023-05-02T04:11:32;95836.03;;;10.86;71.90
23172;BME280;11754;42.664;23.594;2023-05-02T04:13:57;95826.44;;;10.85;71.75
23172;BME280;11754;42.664;23.594;2023-05-02T04:16:23;95829.97;;;11.01;71.15
23172;BME280;11754;42.664;23.594;2023-05-02T04:18:48;95819.72;;;10.98;70.35
23172;BME280;11754;42.664;23.594;2023-05-02T04:21:14;95837.09;;;11.09;69.94
23172;BME280;11754;42.664;23.594;2023-05-02T04:23:39;95829.84;;;11.11;70.18
23172;BME280;11754;42.664;23.594;2023-05-02T04:26:05;95828.84;;;11.12;70.03
23172;BME280;11754;42.664;23.594;2023-05-02T04:28:30;95807.06;;;11.10;69.80
23172;BME280;11754;42.664;23.594;2023-05-02T04:30:56;95838.16;;;11.33;69.73
23172;BME280;11754;42.664;23.594;2023-05-02T04:33:21;95842.13;;;11.45;69.61
23172;BME280;11754;42.664;23.594;2023-05-02T04:35:47;95844.78;;;11.53;69.36
23172;BME280;11754;42.664;23.594;2023-05-02T04:38:13;95849.09;;;11.62;68.98
23172;BME280;11754;42.664;23.594;2023-05-02T04:40:38;95826.31;;;11.61;68.73
23172;BME280;11754;42.664;23.594;2023-05-02T04:43:04;95837.53;;;11.71;67.76
23172;BME280;11754;42.664;23.594;2023-05-02T04:45:29;95825.81;;;11.74;67.73
23172;BME280;11754;42.664;23.594;2023-05-02T04:47:55;95832.59;;;11.85;67.54
23172;BME280;11754;42.664;23.594;2023-05-02T04:50:20;95837.75;;;11.94;67.45
23172;BME280;11754;42.664;23.594;2023-05-02T04:52:46;95845.00;;;12.09;67.41
23172;BME280;11754;42.664;23.594;2023-05-02T04:55:11;95836.22;;;12.16;66.41
23172;BME280;11754;42.664;23.594;2023-05-02T04:57:37;95835.91;;;12.19;66.28
23172;BME280;11754;42.664;23.594;2023-05-02T05:00:04;95826.63;;;12.32;65.47
23172;BME280;11754;42.664;23.594;2023-05-02T05:02:30;95831.22;;;12.46;64.92
23172;BME280;11754;42.664;23.594;2023-05-02T05:04:55;95827.56;;;12.47;64.22
23172;BME280;11754;42.664;23.594;2023-05-02T05:07:21;95838.47;;;12.60;64.30
23172;BME280;11754;42.664;23.594;2023-05-02T05:09:46;95840.22;;;12.76;64.41
23172;BME280;11754;42.664;23.594;2023-05-02T05:15:51;95842.97;;;12.99;62.21
23172;BME280;11754;42.664;23.594;2023-05-02T05:18:17;95851.06;;;12.97;62.54
23172;BME280;11754;42.664;23.594;2023-05-02T05:20:42;95856.31;;;13.14;62.29
23172;BME280;11754;42.664;23.594;2023-05-02T05:23:07;95843.69;;;13.16;60.81
23172;BME280;11754;42.664;23.594;2023-05-02T05:25:33;95846.19;;;13.17;60.69
23172;BME280;11754;42.664;23.594;2023-05-02T05:27:59;95846.84;;;13.28;60.68
23172;BME280;11754;42.664;23.594;2023-05-02T05:30:24;95820.50;;;13.26;61.03
23172;BME280;11754;42.664;23.594;2023-05-02T05:32:50;95851.69;;;13.47;59.93
23172;BME280;11754;42.664;23.594;2023-05-02T05:35:15;95831.44;;;13.54;59.99
23172;BME280;11754;42.664;23.594;2023-05-02T05:37:41;95819.06;;;13.46;58.68
23172;BME280;11754;42.664;23.594;2023-05-02T05:40:07;95840.84;;;13.80;59.11
23172;BME280;11754;42.664;23.594;2023-05-02T05:42:33;95846.69;;;13.98;57.87
23172;BME280;11754;42.664;23.594;2023-05-02T05:44:58;95848.03;;;13.94;56.02
23172;BME280;11754;42.664;23.594;2023-05-02T05:47:23;95848.97;;;14.01;53.21
23172;BME280;11754;42.664;23.594;2023-05-02T05:49:53;95849.41;;;13.90;53.97
23172;BME280;11754;42.664;23.594;2023-05-02T05:52:18;95837.56;;;13.78;54.37
23172;BME280;11754;42.664;23.594;2023-05-02T05:54:44;95854.75;;;14.05;55.34
23172;BME280;11754;42.664;23.594;2023-05-02T05:57:09;95827.41;;;14.04;54.09
23172;BME280;11754;42.664;23.594;2023-05-02T05:59:34;95818.34;;;14.13;54.20
23172;BME280;11754;42.664;23.594;2023-05-02T06:02:00;95837.97;;;14.27;52.40
23172;BME280;11754;42.664;23.594;2023-05-02T06:11:27;95850.94;;;14.75;49.81
23172;BME280;11754;42.664;23.594;2023-05-02T06:13:53;95842.72;;;14.70;48.95
23172;BME280;11754;42.664;23.594;2023-05-02T06:16:18;95836.69;;;14.76;48.49
23172;BME280;11754;42.664;23.594;2023-05-02T06:18:48;95852.41;;;14.92;46.17
23172;BME280;11754;42.664;23.594;2023-05-02T06:21:14;95837.41;;;14.99;47.21
23172;BME280;11754;42.664;23.594;2023-05-02T06:23:42;95839.28;;;15.20;46.71
23172;BME280;11754;42.664;23.594;2023-05-02T06:26:07;95839.38;;;15.27;47.07
23172;BME280;11754;42.664;23.594;2023-05-02T06:28:34;95843.50;;;15.29;45.46
23172;BME280;11754;42.664;23.594;2023-05-02T06:31:04;95838.69;;;15.39;45.54
23172;BME280;11754;42.664;23.594;2023-05-02T06:33:30;95819.09;;;15.41;44.87
23172;BME280;11754;42.664;23.594;2023-05-02T06:35:57;95832.63;;;15.46;44.06
23172;BME280;11754;42.664;23.594;2023-05-02T06:38:22;95828.28;;;15.59;44.14
23172;BME280;11754;42.664;23.594;2023-05-02T06:40:48;95832.94;;;15.72;44.38
23172;BME280;11754;42.664;23.594;2023-05-02T06:43:14;95830.84;;;15.68;43.80
23172;BME280;11754;42.664;23.594;2023-05-02T06:45:39;95825.88;;;15.65;42.29
23172;BME280;11754;42.664;23.594;2023-05-02T06:48:06;95828.19;;;15.89;43.10
23172;BME280;11754;42.664;23.594;2023-05-02T06:50:32;95828.66;;;15.93;43.13
23172;BME280;11754;42.664;23.594;2023-05-02T06:52:57;95830.69;;;15.91;41.04
23172;BME280;11754;42.664;23.594;2023-05-02T07:05:28;95818.91;;;16.28;41.74
23172;BME280;11754;42.664;23.594;2023-05-02T07:07:53;95831.97;;;16.51;40.73
23172;BME280;11754;42.664;23.594;2023-05-02T07:10:19;95811.91;;;16.48;41.46
23172;BME280;11754;42.664;23.594;2023-05-02T07:12:44;95824.50;;;16.68;40.69
23172;BME280;11754;42.664;23.594;2023-05-02T07:15:09;95828.13;;;16.81;40.68
23172;BME280;11754;42.664;23.594;2023-05-02T07:17:35;95821.16;;;16.87;39.38
23172;BME280;11754;42.664;23.594;2023-05-02T07:20:00;95812.94;;;16.82;39.19
23172;BME280;11754;42.664;23.594;2023-05-02T07:29:09;95844.91;;;17.17;37.18
23172;BME280;11754;42.664;23.594;2023-05-02T07:31:35;95833.38;;;17.10;36.91
23172;BME280;11754;42.664;23.594;2023-05-02T07:34:00;95830.72;;;17.10;38.90
23172;BME280;11754;42.664;23.594;2023-05-02T07:36:25;95823.16;;;17.20;38.38
23172;BME280;11754;42.664;23.594;2023-05-02T07:38:52;95840.84;;;17.34;38.50
23172;BME280;11754;42.664;23.594;2023-05-02T07:41:17;95837.00;;;17.43;36.83
23172;BME280;11754;42.664;23.594;2023-05-02T07:43:42;95830.81;;;17.36;36.36
23172;BME280;11754;42.664;23.594;2023-05-02T07:46:08;95839.28;;;17.46;37.37
23172;BME280;11754;42.664;23.594;2023-05-02T07:48:33;95830.06;;;17.56;36.79
23172;BME280;11754;42.664;23.594;2023-05-02T07:51:09;95818.19;;;17.65;36.85
23172;BME280;11754;42.664;23.594;2023-05-02T07:53:34;95834.06;;;17.86;37.80
23172;BME280;11754;42.664;23.594;2023-05-02T07:56:02;95823.59;;;17.91;35.52
23172;BME280;11754;42.664;23.594;2023-05-02T07:58:28;95831.84;;;17.96;36.09
23172;BME280;11754;42.664;23.594;2023-05-02T08:00:53;95833.25;;;18.06;36.65
23172;BME280;11754;42.664;23.594;2023-05-02T08:03:18;95834.72;;;18.35;36.18
23172;BME280;11754;42.664;23.594;2023-05-02T08:05:44;95841.91;;;18.34;34.35
23172;BME280;11754;42.664;23.594;2023-05-02T08:08:09;95837.38;;;18.41;34.84
23172;BME280;11754;42.664;23.594;2023-05-02T08:10:35;95816.59;;;18.57;35.42
23172;BME280;11754;42.664;23.594;2023-05-02T08:13:00;95829.97;;;18.57;35.10
23172;BME280;11754;42.664;23.594;2023-05-02T08:15:25;95831.41;;;18.66;34.98
23172;BME280;11754;42.664;23.594;2023-05-02T08:17:51;95830.38;;;18.93;33.20
23172;BME280;11754;42.664;23.594;2023-05-02T08:20:16;95824.81;;;18.82;33.95
23172;BME280;11754;42.664;23.594;2023-05-02T08:22:41;95829.69;;;19.11;34.45
23172;BME280;11754;42.664;23.594;2023-05-02T08:25:07;95825.56;;;19.15;33.30
23172;BME280;11754;42.664;23.594;2023-05-02T08:27:32;95825.16;;;19.12;33.74
23172;BME280;11754;42.664;23.594;2023-05-02T08:29:59;95832.31;;;19.25;32.48
23172;BME280;11754;42.664;23.594;2023-05-02T08:32:25;95809.22;;;19.37;32.83
23172;BME280;11754;42.664;23.594;2023-05-02T08:34:53;95834.81;;;19.58;31.84
23172;BME280;11754;42.664;23.594;2023-05-02T08:37:19;95820.22;;;19.54;32.86
23172;BME280;11754;42.664;23.594;2023-05-02T08:39:44;95815.91;;;19.66;33.61
23172;BME280;11754;42.664;23.594;2023-05-02T08:42:10;95825.19;;;19.95;32.48
23172;BME280;11754;42.664;23.594;2023-05-02T08:44:36;95822.59;;;20.13;31.85
23172;BME280;11754;42.664;23.594;2023-05-02T08:47:01;95817.72;;;20.29;32.27
23172;BME280;11754;42.664;23.594;2023-05-02T08:49:28;95824.06;;;20.34;32.32
23172;BME280;11754;42.664;23.594;2023-05-02T08:51:55;95818.78;;;20.53;31.03
23172;BME280;11754;42.664;23.594;2023-05-02T08:54:22;95823.31;;;20.77;31.14
23172;BME280;11754;42.664;23.594;2023-05-02T08:56:50;95821.53;;;21.08;29.82
23172;BME280;11754;42.664;23.594;2023-05-02T08:59:16;95825.69;;;21.22;30.88
23172;BME280;11754;42.664;23.594;2023-05-02T09:01:43;95826.13;;;21.56;30.60
23172;BME280;11754;42.664;23.594;2023-05-02T09:04:10;95820.94;;;21.73;30.25
23172;BME280;11754;42.664;23.594;2023-05-02T09:06:36;95813.94;;;22.02;29.71
23172;BME280;11754;42.664;23.594;2023-05-02T09:09:01;95826.84;;;22.23;29.45
23172;BME280;11754;42.664;23.594;2023-05-02T09:11:27;95812.16;;;22.85;28.59
23172;BME280;11754;42.664;23.594;2023-05-02T09:13:53;95811.25;;;22.91;27.87
23172;BME280;11754;42.664;23.594;2023-05-02T09:16:24;95804.69;;;23.10;28.09
23172;BME280;11754;42.664;23.594;2023-05-02T09:18:53;95805.38;;;23.17;28.70
23172;BME280;11754;42.664;23.594;2023-05-02T09:21:22;95796.00;;;23.60;26.58
23172;BME280;11754;42.664;23.594;2023-05-02T09:23:55;95808.84;;;23.41;27.28
23172;BME280;11754;42.664;23.594;2023-05-02T09:28:55;95799.03;;;24.55;26.41
23172;BME280;11754;42.664;23.594;2023-05-02T09:31:23;95791.06;;;24.82;27.08
23172;BME280;11754;42.664;23.594;2023-05-02T09:33:52;95791.78;;;25.11;25.36
23172;BME280;11754;42.664;23.594;2023-05-02T09:36:19;95787.97;;;25.56;25.61
23172;BME280;11754;42.664;23.594;2023-05-02T09:38:47;95775.59;;;26.09;23.71
23172;BME280;11754;42.664;23.594;2023-05-02T09:41:13;95785.56;;;27.15;23.87
23172;BME280;11754;42.664;23.594;2023-05-02T09:43:39;95794.34;;;28.72;22.33
23172;BME280;11754;42.664;23.594;2023-05-02T09:46:06;95785.16;;;30.47;20.56
23172;BME280;11754;42.664;23.594;2023-05-02T09:48:50;95767.06;;;32.24;19.14
23172;BME280;11754;42.664;23.594;2023-05-02T09:51:17;95772.38;;;33.28;18.35
23172;BME280;11754;42.664;23.594;2023-05-02T09:53:43;95767.66;;;33.97;16.61
23172;BME280;11754;42.664;23.594;2023-05-02T09:56:09;95756.22;;;35.07;15.79
23172;BME280;11754;42.664;23.594;2023-05-02T09:58:35;95759.56;;;35.93;15.10
23172;BME280;11754;42.664;23.594;2023-05-02T10:01:01;95750.53;;;36.53;14.43
23172;BME280;11754;42.664;23.594;2023-05-02T10:03:27;95749.53;;;37.90;13.90
23172;BME280;11754;42.664;23.594;2023-05-02T10:05:53;95748.88;;;38.35;12.99
23172;BME280;11754;42.664;23.594;2023-05-02T10:08:20;95741.00;;;39.36;12.83
23172;BME280;11754;42.664;23.594;2023-05-02T10:10:54;95746.59;;;40.42;12.27
23172;BME280;11754;42.664;23.594;2023-05-02T10:13:22;95739.28;;;41.53;11.05
23172;BME280;11754;42.664;23.594;2023-05-02T10:15:53;95733.72;;;41.85;11.61
23172;BME280;11754;42.664;23.594;2023-05-02T10:18:39;95734.28;;;43.10;10.75
23172;BME280;11754;42.664;23.594;2023-05-02T10:21:11;95736.06;;;42.21;10.59
23172;BME280;11754;42.664;23.594;2023-05-02T10:23:41;95721.06;;;44.33;9.38
23172;BME280;11754;42.664;23.594;2023-05-02T10:26:13;95732.84;;;43.96;9.63
23172;BME280;11754;42.664;23.594;2023-05-02T11:19:10;95682.00;;;44.59;8.79
23172;BME280;11754;42.664;23.594;2023-05-02T11:21:35;95685.72;;;42.78;9.43
23172;BME280;11754;42.664;23.594;2023-05-02T11:30:00;95679.28;;;42.31;9.69
23172;BME280;11754;42.664;23.594;2023-05-02T11:35:24;95688.63;;;42.65;9.20
23172;BME280;11754;42.664;23.594;2023-05-02T12:01:57;95671.94;;;38.75;11.47
23172;BME280;11754;42.664;23.594;2023-05-02T12:04:23;95666.81;;;38.86;11.33
23172;BME280;11754;42.664;23.594;2023-05-02T12:06:56;95657.25;;;38.71;11.51
23172;BME280;11754;42.664;23.594;2023-05-02T12:09:21;95661.53;;;38.93;10.91
23172;BME280;11754;42.664;23.594;2023-05-02T12:11:52;95639.72;;;39.49;10.75
23172;BME280;11754;42.664;23.594;2023-05-02T12:14:26;95653.22;;;40.63;10.93
23172;BME280;11754;42.664;23.594;2023-05-02T12:16:52;95642.28;;;42.23;9.83
23172;BME280;11754;42.664;23.594;2023-05-02T12:19:17;95637.16;;;43.10;8.88
23172;BME280;11754;42.664;23.594;2023-05-02T12:21:43;95634.38;;;43.37;9.13
23172;BME280;11754;42.664;23.594;2023-05-02T12:24:09;95621.50;;;44.12;8.84
23172;BME280;11754;42.664;23.594;2023-05-02T12:26:35;95640.00;;;44.31;8.59
23172;BME280;11754;42.664;23.594;2023-05-02T12:29:00;95620.94;;;43.39;9.31
23172;BME280;11754;42.664;23.594;2023-05-02T12:31:26;95628.34;;;43.58;9.35
23172;BME280;11754;42.664;23.594;2023-05-02T12:33:55;95629.59;;;45.58;8.13
23172;BME280;11754;42.664;23.594;2023-05-02T12:36:22;95626.03;;;46.69;7.79
23172;BME280;11754;42.664;23.594;2023-05-02T12:38:52;95613.06;;;45.93;8.01
23172;BME280;11754;42.664;23.594;2023-05-02T12:41:32;95601.72;;;44.54;8.30
23172;BME280;11754;42.664;23.594;2023-05-02T12:43:58;95594.38;;;44.73;8.02
23172;BME280;11754;42.664;23.594;2023-05-02T12:46:24;95588.31;;;45.15;8.22
23172;BME280;11754;42.664;23.594;2023-05-02T12:49:06;95597.91;;;44.70;8.24
23172;BME280;11754;42.664;23.594;2023-05-02T12:51:33;95594.41;;;45.31;7.96
23172;BME280;11754;42.664;23.594;2023-05-02T13:00:48;95580.19;;;44.44;8.73
23172;BME280;11754;42.664;23.594;2023-05-02T13:03:13;95582.59;;;43.82;8.71
23172;BME280;11754;42.664;23.594;2023-05-02T13:05:39;95579.03;;;44.11;8.78
23172;BME280;11754;42.664;23.594;2023-05-02T13:08:04;95584.91;;;43.73;8.76
23172;BME280;11754;42.664;23.594;2023-05-02T13:10:30;95578.97;;;44.45;8.32
23172;BME280;11754;42.664;23.594;2023-05-02T13:12:55;95570.97;;;44.03;8.43
23172;BME280;11754;42.664;23.594;2023-05-02T13:15:21;95575.97;;;44.24;8.61
23172;BME280;11754;42.664;23.594;2023-05-02T13:17:46;95574.97;;;45.42;8.36
23172;BME280;11754;42.664;23.594;2023-05-02T13:20:14;95574.38;;;44.64;8.08
23172;BME280;11754;42.664;23.594;2023-05-02T13:22:39;95567.75;;;42.38;9.37
23172;BME280;11754;42.664;23.594;2023-05-02T13:25:05;95581.34;;;41.65;9.51
23172;BME280;11754;42.664;23.594;2023-05-02T13:27:31;95570.06;;;41.19;10.16
23172;BME280;11754;42.664;23.594;2023-05-02T13:30:04;95580.47;;;40.59;10.24
23172;BME280;11754;42.664;23.594;2023-05-02T13:32:29;95581.03;;;39.93;10.12
23172;BME280;11754;42.664;23.594;2023-05-02T13:34:55;95575.78;;;39.47;10.65
23172;BME280;11754;42.664;23.594;2023-05-02T13:37:20;95570.44;;;40.10;10.67
23172;BME280;11754;42.664;23.594;2023-05-02T13:39:46;95579.16;;;39.04;10.93
23172;BME280;11754;42.664;23.594;2023-05-02T13:45:33;95582.44;;;37.48;11.65
23172;BME280;11754;42.664;23.594;2023-05-02T13:47:58;95588.22;;;36.67;12.53
23172;BME280;11754;42.664;23.594;2023-05-02T13:50:23;95580.28;;;34.88;14.06
23172;BME280;11754;42.664;23.594;2023-05-02T13:52:49;95587.59;;;32.90;14.79
23172;BME280;11754;42.664;23.594;2023-05-02T13:55:14;95581.44;;;31.97;15.10
23172;BME280;11754;42.664;23.594;2023-05-02T13:57:40;95583.31;;;30.40;16.94
23172;BME280;11754;42.664;23.594;2023-05-02T14:00:05;95595.78;;;29.54;17.50
23172;BME280;11754;42.664;23.594;2023-05-02T14:02:34;95586.38;;;28.81;18.55
23172;BME280;11754;42.664;23.594;2023-05-02T14:04:59;95585.50;;;28.16;18.26
23172;BME280;11754;42.664;23.594;2023-05-02T14:07:24;95577.97;;;27.46;19.32
23172;BME280;11754;42.664;23.594;2023-05-02T14:09:50;95583.00;;;26.92;20.31
23172;BME280;11754;42.664;23.594;2023-05-02T14:15:56;95596.34;;;25.71;20.88
23172;BME280;11754;42.664;23.594;2023-05-02T14:18:22;95592.84;;;25.38;22.15
23172;BME280;11754;42.664;23.594;2023-05-02T14:20:48;95585.84;;;25.10;21.57
23172;BME280;11754;42.664;23.594;2023-05-02T14:23:13;95591.88;;;24.74;22.39
23172;BME280;11754;42.664;23.594;2023-05-02T14:25:38;95597.25;;;24.47;21.90
23172;BME280;11754;42.664;23.594;2023-05-02T14:34:50;95578.13;;;24.09;23.15
23172;BME280;11754;42.664;23.594;2023-05-02T14:37:16;95574.72;;;23.97;24.06
23172;BME280;11754;42.664;23.594;2023-05-02T14:39:41;95571.81;;;23.82;23.92
23172;BME280;11754;42.664;23.594;2023-05-02T14:42:08;95570.09;;;23.76;24.23
23172;BME280;11754;42.664;23.594;2023-05-02T14:44:34;95574.84;;;23.68;23.77
23172;BME280;11754;42.664;23.594;2023-05-02T14:47:18;95581.50;;;23.49;24.03
23172;BME280;11754;42.664;23.594;2023-05-02T14:49:43;95571.22;;;23.46;24.19
23172;BME280;11754;42.664;23.594;2023-05-02T14:52:08;95573.84;;;23.41;24.35
23172;BME280;11754;42.664;23.594;2023-05-02T14:54:34;95566.25;;;23.38;24.54
23172;BME280;11754;42.664;23.594;2023-05-02T14:57:00;95580.03;;;23.24;23.97
23172;BME280;11754;42.664;23.594;2023-05-02T14:59:28;95567.53;;;23.18;23.92
23172;BME280;11754;42.664;23.594;2023-05-02T15:01:53;95566.31;;;23.09;25.03
23172;BME280;11754;42.664;23.594;2023-05-02T15:04:18;95579.66;;;23.04;24.63
23172;BME280;11754;42.664;23.594;2023-05-02T15:06:44;95575.81;;;23.00;24.00
23172;BME280;11754;42.664;23.594;2023-05-02T15:09:10;95573.91;;;22.84;24.47
23172;BME280;11754;42.664;23.594;2023-05-02T15:11:36;95570.41;;;22.71;24.31
23172;BME280;11754;42.664;23.594;2023-05-02T15:14:01;95574.22;;;22.59;25.19
23172;BME280;11754;42.664;23.594;2023-05-02T15:16:28;95583.38;;;22.46;24.65
23172;BME280;11754;42.664;23.594;2023-05-02T15:18:54;95577.69;;;22.30;24.24
23172;BME280;11754;42.664;23.594;2023-05-02T15:21:20;95570.13;;;22.16;24.71
23172;BME280;11754;42.664;23.594;2023-05-02T15:23:45;95575.03;;;22.07;25.01
23172;BME280;11754;42.664;23.594;2023-05-02T15:26:11;95569.53;;;22.02;24.92
23172;BME280;11754;42.664;23.594;2023-05-02T15:28:37;95571.66;;;22.00;25.84
23172;BME280;11754;42.664;23.594;2023-05-02T15:31:03;95571.41;;;21.90;25.37
23172;BME280;11754;42.664;23.594;2023-05-02T15:33:28;95572.34;;;21.83;25.12
23172;BME280;11754;42.664;23.594;2023-05-02T15:35:55;95558.00;;;21.66;24.88
23172;BME280;11754;42.664;23.594;2023-05-02T15:38:22;95561.72;;;21.65;25.52
23172;BME280;11754;42.664;23.594;2023-05-02T15:40:56;95580.53;;;21.53;25.97
23172;BME280;11754;42.664;23.594;2023-05-02T15:43:22;95570.09;;;21.33;25.86